createdAt,value
2022-12-14T00:01:21.673Z,36.70
2022-12-14T00:03:32.345Z,35.40
2022-12-14T00:05:34.441Z,34.42
2022-12-14T00:07:37.277Z,35.13
2022-12-14T00:09:39.196Z,38.72
2022-12-14T00:11:42.308Z,38.05
2022-12-14T00:13:45.534Z,36.03
2022-12-14T00:15:53.088Z,38.30
2022-12-14T00:17:56.521Z,36.83
2022-12-14T00:19:58.446Z,36.95
2022-12-14T00:22:00.312Z,35.85
2022-12-14T00:24:02.358Z,34.92
2022-12-14T00:26:27.794Z,38.42
2022-12-14T00:28:30.721Z,35.00
2022-12-14T00:30:32.626Z,32.75
2022-12-14T00:32:35.676Z,32.08
2022-12-14T00:34:38.627Z,38.90
2022-12-14T00:36:40.515Z,32.92
2022-12-14T00:38:43.413Z,35.10
2022-12-14T00:40:56.426Z,32.22
2022-12-14T00:43:12.257Z,33.47
2022-12-14T00:45:21.459Z,38.63
2022-12-14T00:47:26.491Z,33.30
2022-12-14T00:49:30.476Z,42.28
2022-12-14T00:51:32.434Z,34.70
2022-12-14T00:53:38.375Z,34.97
2022-12-14T00:55:44.485Z,36.35
2022-12-14T00:57:53.619Z,35.97
2022-12-14T01:00:02.526Z,33.92
2022-12-14T01:02:06.032Z,37.28
2022-12-14T01:04:21.818Z,33.53
2022-12-14T01:06:23.866Z,34.03
2022-12-14T01:08:35.959Z,35.30
2022-12-14T01:10:41.220Z,36.58
2022-12-14T01:12:43.389Z,34.13
2022-12-14T01:14:46.512Z,35.92
2022-12-14T01:16:49.457Z,33.92
2022-12-14T01:18:51.399Z,37.45
2022-12-14T01:21:18.628Z,35.28
2022-12-14T01:23:20.554Z,33.60
2022-12-14T01:25:22.624Z,36.22
2022-12-14T01:27:24.490Z,33.85
2022-12-14T01:29:26.399Z,38.35
2022-12-14T01:31:33.437Z,35.90
2022-12-14T01:33:39.747Z,37.08
2022-12-14T01:35:41.641Z,35.10
2022-12-14T01:37:43.521Z,38.35
2022-12-14T01:39:45.436Z,40.08
2022-12-14T01:41:50.402Z,40.00
2022-12-14T01:43:56.631Z,36.28
2022-12-14T01:46:04.352Z,37.05
2022-12-14T01:48:11.954Z,36.28
2022-12-14T01:50:35.798Z,34.88
2022-12-14T01:52:45.320Z,34.95
2022-12-14T01:55:02.299Z,34.53
2022-12-14T01:57:04.518Z,37.47
2022-12-14T01:59:12.177Z,38.03
2022-12-14T02:01:15.515Z,36.15
2022-12-14T02:03:31.671Z,39.50
2022-12-14T02:05:38.324Z,37.67
2022-12-14T02:07:42.826Z,36.53
2022-12-14T02:09:56.190Z,37.90
2022-12-14T02:12:10.171Z,38.17
2022-12-14T02:14:15.566Z,38.28
2022-12-14T02:16:19.625Z,35.55
2022-12-14T02:18:27.886Z,38.95
2022-12-14T02:20:44.621Z,37.95
2022-12-14T02:23:22.269Z,39.58
2022-12-14T02:25:40.105Z,34.72
2022-12-14T02:28:09.691Z,37.33
2022-12-14T02:30:20.695Z,38.25
2022-12-14T02:32:42.486Z,37.33
2022-12-14T02:35:04.306Z,36.45
2022-12-14T02:37:18.168Z,35.60
2022-12-14T02:39:57.370Z,41.85
2022-12-14T02:42:17.597Z,30.02
2022-12-14T02:45:01.647Z,36.95
2022-12-14T02:47:23.525Z,35.75
2022-12-14T02:49:28.348Z,35.95
2022-12-14T02:51:37.353Z,40.42
2022-12-14T02:53:55.046Z,34.47
2022-12-14T02:56:02.656Z,37.40
2022-12-14T02:58:29.125Z,38.67
2022-12-14T03:00:34.075Z,37.55
2022-12-14T03:02:38.832Z,34.55
2022-12-14T03:04:47.732Z,34.45
2022-12-14T03:07:03.810Z,34.90
2022-12-14T03:09:13.774Z,38.83
2022-12-14T03:11:23.939Z,38.85
2022-12-14T03:14:01.712Z,37.00
2022-12-14T03:16:16.245Z,41.92
2022-12-14T03:18:21.923Z,37.97
2022-12-14T03:20:29.536Z,38.03
2022-12-14T03:22:51.083Z,39.78
2022-12-14T03:24:58.894Z,36.15
2022-12-14T03:27:15.831Z,39.53
2022-12-14T03:29:28.376Z,42.85
2022-12-14T03:31:48.898Z,43.97
2022-12-14T03:33:56.073Z,39.50
2022-12-14T03:36:13.334Z,38.53
2022-12-14T03:38:34.087Z,39.70
2022-12-14T03:41:12.122Z,42.72
2022-12-14T03:43:17.584Z,42.65
2022-12-14T03:45:28.909Z,41.70
2022-12-14T03:47:59.285Z,43.22
2022-12-14T03:50:01.114Z,49.28
2022-12-14T03:52:09.973Z,46.72
2022-12-14T03:54:20.074Z,46.60
2022-12-14T03:56:35.735Z,48.45
2022-12-14T03:59:16.775Z,53.47
2022-12-14T04:01:46.589Z,71.30
2022-12-14T04:04:22.557Z,63.15
2022-12-14T04:06:44.153Z,54.97
2022-12-14T04:09:08.428Z,62.22
2022-12-14T04:11:38.866Z,46.17
2022-12-14T04:14:05.533Z,48.95
2022-12-14T04:16:33.802Z,50.03
2022-12-14T04:19:00.510Z,50.20
2022-12-14T04:21:11.884Z,46.88
2022-12-14T04:23:41.178Z,41.20
2022-12-14T04:26:05.762Z,44.60
2022-12-14T04:28:44.877Z,46.58
2022-12-14T04:30:49.081Z,42.40
2022-12-14T04:33:25.142Z,40.00
2022-12-14T04:35:37.030Z,47.40
2022-12-14T04:37:42.943Z,39.25
2022-12-14T04:39:56.639Z,38.78
2022-12-14T04:42:03.019Z,37.08
2022-12-14T04:44:24.309Z,40.50
2022-12-14T04:46:35.192Z,41.88
2022-12-14T04:49:21.565Z,41.67
2022-12-14T04:51:41.619Z,42.28
2022-12-14T04:53:47.213Z,41.35
2022-12-14T04:56:05.759Z,36.05
2022-12-14T04:58:38.546Z,37.15
2022-12-14T05:00:58.275Z,33.28
2022-12-14T05:03:33.344Z,36.15
2022-12-14T05:05:42.727Z,40.20
2022-12-14T05:08:20.631Z,39.92
2022-12-14T05:10:50.771Z,39.33
2022-12-14T05:13:05.412Z,37.78
2022-12-14T05:15:23.569Z,40.92
2022-12-14T05:17:27.948Z,45.53
2022-12-14T05:20:00.140Z,51.83
2022-12-14T05:24:28.995Z,38.42
2022-12-14T05:26:32.158Z,41.20
2022-12-14T05:28:39.143Z,45.42
2022-12-14T05:30:41.128Z,41.85
2022-12-14T05:32:43.061Z,41.17
2022-12-14T05:34:46.053Z,39.10
2022-12-14T05:36:48.174Z,40.50
2022-12-14T05:38:52.214Z,45.75
2022-12-14T05:40:54.167Z,47.13
2022-12-14T05:43:08.086Z,48.55
2022-12-14T05:45:29.925Z,49.42
2022-12-14T05:47:31.855Z,45.65
2022-12-14T05:49:42.058Z,47.47
2022-12-14T05:51:44.950Z,45.88
2022-12-14T05:53:49.910Z,46.75
2022-12-14T05:55:53.931Z,48.10
2022-12-14T05:58:03.794Z,44.15
2022-12-14T06:00:06.086Z,44.70
2022-12-14T06:02:17.032Z,46.08
2022-12-14T06:04:21.179Z,56.23
2022-12-14T06:06:33.799Z,57.97
2022-12-14T06:08:38.290Z,59.60
2022-12-14T06:10:50.462Z,57.22
2022-12-14T06:12:59.150Z,60.40
2022-12-14T06:15:04.824Z,60.08
2022-12-14T06:17:14.907Z,57.47
2022-12-14T06:19:20.933Z,56.70
2022-12-14T06:21:29.674Z,57.53
2022-12-14T06:23:31.642Z,57.03
2022-12-14T06:25:33.657Z,56.63
2022-12-14T06:27:35.881Z,60.17
2022-12-14T06:29:47.081Z,61.10
2022-12-14T06:32:01.805Z,55.70
2022-12-14T06:34:03.889Z,59.03
2022-12-14T06:36:06.181Z,57.65
2022-12-14T06:38:10.309Z,47.13
2022-12-14T06:40:13.829Z,52.05
2022-12-14T06:42:28.935Z,53.55
2022-12-14T06:44:32.097Z,48.35
2022-12-14T06:46:36.457Z,48.70
2022-12-14T06:48:38.820Z,58.72
2022-12-14T06:50:42.806Z,61.72
2022-12-14T06:52:52.349Z,50.45
2022-12-14T06:54:59.293Z,54.10
2022-12-14T06:57:06.573Z,57.20
2022-12-14T06:59:25.286Z,57.70
2022-12-14T07:01:34.369Z,60.28
2022-12-14T07:03:41.365Z,64.10
2022-12-14T07:05:56.804Z,71.43
2022-12-14T07:08:12.969Z,68.47
2022-12-14T07:10:24.057Z,80.97
2022-12-14T07:12:29.162Z,80.68
2022-12-14T07:14:36.304Z,83.10
2022-12-14T07:16:42.590Z,79.13
2022-12-14T07:18:50.741Z,68.40
2022-12-14T07:21:22.150Z,62.45
2022-12-14T07:23:34.272Z,61.45
2022-12-14T07:25:36.539Z,61.15
2022-12-14T07:27:38.571Z,66.13
2022-12-14T07:29:56.692Z,59.08
2022-12-14T07:32:00.036Z,67.50
2022-12-14T07:34:13.166Z,60.72
2022-12-14T07:36:19.637Z,60.88
2022-12-14T07:38:22.612Z,63.97
2022-12-14T07:40:25.726Z,60.83
2022-12-14T07:42:30.667Z,56.53
2022-12-14T07:44:40.433Z,58.20
2022-12-14T07:46:54.132Z,56.17
2022-12-14T07:48:57.983Z,67.38
2022-12-14T07:51:17.336Z,59.40
2022-12-14T07:53:37.499Z,58.95
2022-12-14T07:55:39.444Z,62.95
2022-12-14T07:57:58.385Z,55.30
2022-12-14T08:00:14.107Z,51.22
2022-12-14T08:02:18.188Z,49.35
2022-12-14T08:04:22.745Z,50.00
2022-12-14T08:06:40.638Z,53.10
2022-12-14T08:08:51.953Z,55.05
2022-12-14T08:10:59.014Z,51.75
2022-12-14T08:13:02.942Z,50.70
2022-12-14T08:15:07.597Z,48.58
2022-12-14T08:17:12.493Z,48.30
2022-12-14T08:19:20.061Z,48.42
2022-12-14T08:21:30.229Z,48.38
2022-12-14T08:23:37.243Z,46.30
2022-12-14T08:25:39.246Z,46.28
2022-12-14T08:27:49.064Z,44.05
2022-12-14T08:29:53.032Z,47.42
2022-12-14T08:32:04.079Z,47.78
2022-12-14T08:34:08.642Z,47.85
2022-12-14T08:36:29.371Z,43.20
2022-12-14T08:38:33.433Z,43.17
2022-12-14T08:40:38.832Z,45.70
2022-12-14T08:42:51.022Z,44.10
2022-12-14T08:44:53.065Z,40.33
2022-12-14T08:46:57.187Z,40.08
2022-12-14T08:49:03.767Z,36.40
2022-12-14T08:51:10.776Z,38.00
2022-12-14T08:53:28.923Z,34.33
2022-12-14T08:55:38.937Z,37.35
2022-12-14T08:57:41.101Z,34.67
2022-12-14T09:00:01.215Z,35.63
2022-12-14T09:02:06.042Z,37.60
2022-12-14T09:04:09.140Z,35.15
2022-12-14T09:06:25.280Z,32.28
2022-12-14T09:08:27.306Z,35.20
2022-12-14T09:10:30.654Z,40.53
2022-12-14T09:12:39.681Z,38.05
2022-12-14T09:14:46.730Z,41.10
2022-12-14T09:17:01.726Z,38.63
2022-12-14T09:19:20.221Z,33.97
2022-12-14T09:21:36.213Z,34.53
2022-12-14T09:23:40.101Z,32.85
2022-12-14T09:25:47.474Z,35.28
2022-12-14T09:27:57.077Z,34.13
2022-12-14T09:29:59.016Z,37.35
2022-12-14T09:32:03.069Z,35.28
2022-12-14T09:34:07.689Z,37.75
2022-12-14T09:36:28.253Z,37.33
2022-12-14T09:38:34.945Z,35.20
2022-12-14T09:40:42.922Z,35.80
2022-12-14T09:43:06.331Z,38.03
2022-12-14T09:45:35.648Z,44.88
2022-12-14T09:48:06.199Z,41.70
2022-12-14T09:50:17.861Z,44.90
2022-12-14T09:52:24.221Z,38.22
2022-12-14T09:54:38.685Z,42.83
2022-12-14T09:56:47.853Z,40.78
2022-12-14T09:58:57.055Z,34.97
2022-12-14T10:01:19.666Z,37.30
2022-12-14T10:03:46.013Z,40.53
2022-12-14T10:06:22.264Z,41.42
2022-12-14T10:08:28.409Z,41.83
2022-12-14T10:11:15.736Z,41.42
2022-12-14T10:13:36.810Z,39.03
2022-12-14T10:16:21.378Z,33.72
2022-12-14T10:19:03.627Z,39.75
2022-12-14T10:21:24.114Z,35.30
2022-12-14T10:23:27.965Z,33.88
2022-12-14T10:25:34.383Z,34.33
2022-12-14T10:28:09.161Z,34.40
2022-12-14T10:30:21.430Z,37.28
2022-12-14T10:32:41.455Z,37.10
2022-12-14T10:34:52.622Z,36.22
2022-12-14T10:37:02.878Z,33.90
2022-12-14T10:39:24.540Z,31.00
2022-12-14T10:42:08.203Z,31.23
2022-12-14T10:44:29.721Z,31.45
2022-12-14T10:46:42.872Z,33.90
2022-12-14T10:49:36.927Z,33.13
2022-12-14T10:51:45.094Z,35.17
2022-12-14T10:53:52.346Z,34.13
2022-12-14T10:56:01.248Z,33.15
2022-12-14T10:58:11.727Z,34.58
2022-12-14T11:00:23.140Z,33.53
2022-12-14T11:02:43.144Z,32.67
2022-12-14T11:05:13.030Z,32.65
2022-12-14T11:07:21.566Z,35.58
2022-12-14T11:09:45.304Z,38.10
2022-12-14T11:11:48.319Z,33.13
2022-12-14T11:14:10.291Z,33.47
2022-12-14T11:16:30.288Z,34.42
2022-12-14T11:18:55.597Z,32.83
2022-12-14T11:21:06.755Z,35.33
2022-12-14T11:23:36.619Z,36.85
2022-12-14T11:25:48.877Z,35.35
2022-12-14T11:28:22.081Z,34.83
2022-12-14T11:30:29.237Z,35.05
2022-12-14T11:32:38.494Z,33.90
2022-12-14T11:34:54.012Z,33.10
2022-12-14T11:36:56.073Z,33.88
2022-12-14T11:39:14.108Z,34.95
2022-12-14T11:41:22.412Z,32.50
2022-12-14T11:43:33.968Z,36.53
2022-12-14T11:45:41.041Z,32.53
2022-12-14T11:47:45.049Z,31.85
2022-12-14T11:49:49.738Z,31.65
2022-12-14T11:52:19.997Z,40.50
2022-12-14T11:54:22.985Z,33.47
2022-12-14T11:56:25.791Z,31.55
2022-12-14T11:58:36.682Z,29.92
2022-12-14T12:01:03.236Z,29.63
2022-12-14T12:03:28.324Z,30.50
2022-12-14T12:05:41.947Z,30.73
2022-12-14T12:07:50.899Z,30.40
2022-12-14T12:09:53.425Z,32.25
2022-12-14T12:12:20.565Z,32.38
2022-12-14T12:14:35.930Z,31.77
2022-12-14T12:16:42.435Z,31.33
2022-12-14T12:19:12.953Z,26.75
2022-12-14T12:21:30.470Z,26.75
2022-12-14T12:23:51.698Z,30.38
2022-12-14T12:25:58.929Z,25.87
2022-12-14T12:28:09.285Z,25.13
2022-12-14T12:30:19.634Z,26.63
2022-12-14T12:32:36.158Z,22.65
2022-12-14T12:34:57.130Z,25.77
2022-12-14T12:37:25.812Z,22.25
2022-12-14T12:39:28.709Z,21.77
2022-12-14T12:41:59.298Z,24.02
2022-12-14T12:44:36.452Z,21.73
2022-12-14T12:47:22.390Z,23.65
2022-12-14T12:49:15.100Z,23.15
2022-12-14T12:51:25.625Z,27.95
2022-12-14T12:53:48.350Z,21.50
2022-12-14T12:55:59.276Z,21.05
2022-12-14T12:58:03.392Z,22.70
2022-12-14T13:00:19.235Z,24.35
2022-12-14T13:02:42.905Z,19.92
2022-12-14T13:04:52.434Z,22.15
2022-12-14T13:07:23.054Z,24.65
2022-12-14T13:10:14.013Z,24.20
2022-12-14T13:12:42.605Z,20.52
2022-12-14T13:14:53.200Z,24.17
2022-12-14T13:17:01.582Z,27.52
2022-12-14T13:19:50.643Z,28.13
2022-12-14T13:22:05.863Z,28.65
2022-12-14T13:24:17.783Z,29.25
2022-12-14T13:27:05.692Z,25.35
2022-12-14T13:29:25.891Z,25.10
2022-12-14T13:31:55.364Z,28.95
2022-12-14T13:34:06.997Z,27.00
2022-12-14T13:36:34.025Z,27.17
2022-12-14T13:39:09.678Z,30.00
2022-12-14T13:41:40.281Z,32.03
2022-12-14T13:44:43.613Z,35.15
2022-12-14T13:47:05.981Z,32.33
2022-12-14T13:49:19.570Z,32.72
2022-12-14T13:51:40.795Z,31.13
2022-12-14T13:53:57.238Z,35.92
2022-12-14T13:56:03.034Z,35.15
2022-12-14T13:58:42.062Z,30.55
2022-12-14T14:00:51.350Z,33.20
2022-12-14T14:02:57.597Z,29.55
2022-12-14T14:05:37.839Z,29.17
2022-12-14T14:08:03.889Z,32.20
2022-12-14T14:10:32.305Z,31.70
2022-12-14T14:12:42.158Z,30.58
2022-12-14T14:14:55.001Z,28.27
2022-12-14T14:17:03.705Z,29.52
2022-12-14T14:19:23.280Z,28.65
2022-12-14T14:22:32.290Z,29.42
2022-12-14T14:24:24.544Z,31.95
2022-12-14T14:26:34.960Z,29.27
2022-12-14T14:28:44.157Z,31.27
2022-12-14T14:30:57.169Z,31.90
2022-12-14T14:33:35.885Z,31.30
2022-12-14T14:35:51.672Z,30.40
2022-12-14T14:38:05.194Z,29.90
2022-12-14T14:40:50.889Z,31.33
2022-12-14T14:43:30.837Z,38.60
2022-12-14T14:47:59.562Z,41.92
2022-12-14T14:50:22.745Z,40.38
2022-12-14T14:53:08.454Z,43.42
2022-12-14T14:58:35.527Z,37.97
2022-12-14T15:01:21.444Z,34.92
2022-12-14T15:03:45.914Z,31.73
2022-12-14T15:05:58.549Z,33.22
2022-12-14T15:08:03.607Z,29.90
2022-12-14T15:10:22.266Z,37.92
2022-12-14T15:12:37.146Z,33.97
2022-12-14T15:14:48.949Z,32.72
2022-12-14T15:16:51.249Z,33.40
2022-12-14T15:18:55.427Z,35.75
2022-12-14T15:21:20.313Z,31.83
2022-12-14T15:23:24.841Z,31.88
2022-12-14T15:25:30.636Z,33.85
2022-12-14T15:27:35.066Z,28.50
2022-12-14T15:29:38.105Z,36.38
2022-12-14T15:31:45.167Z,29.70
2022-12-14T15:33:53.056Z,28.25
2022-12-14T15:36:03.705Z,32.58
2022-12-14T15:38:09.366Z,34.72
2022-12-14T15:40:16.753Z,36.38
2022-12-14T15:42:22.912Z,35.38
2022-12-14T15:44:31.922Z,37.15
2022-12-14T15:46:41.629Z,35.47
2022-12-14T15:48:44.693Z,38.10
2022-12-14T15:51:13.469Z,38.08
2022-12-14T15:53:29.715Z,38.35
2022-12-14T15:55:42.520Z,40.95
2022-12-14T15:57:46.973Z,36.75
2022-12-14T16:00:00.014Z,36.65
2022-12-14T16:02:29.533Z,34.00
2022-12-14T16:04:32.106Z,35.05
2022-12-14T16:06:40.912Z,34.67
2022-12-14T16:08:48.792Z,34.80
2022-12-14T16:10:58.162Z,34.72
2022-12-14T16:13:24.381Z,37.20
2022-12-14T16:15:36.254Z,39.13
2022-12-14T16:20:00.653Z,35.75
2022-12-14T16:24:27.585Z,40.25
2022-12-14T16:26:38.957Z,35.67
2022-12-14T16:28:41.258Z,40.13
2022-12-14T16:31:15.619Z,38.28
2022-12-14T16:33:21.208Z,34.65
2022-12-14T16:35:32.433Z,40.85
2022-12-14T16:37:35.157Z,39.55
2022-12-14T16:39:40.161Z,38.55
2022-12-14T16:41:57.381Z,37.97
2022-12-14T16:44:02.017Z,38.95
2022-12-14T16:46:04.209Z,36.05
2022-12-14T16:48:14.378Z,37.22
2022-12-14T16:50:54.957Z,43.97
2022-12-14T16:53:21.835Z,36.38
2022-12-14T16:55:26.565Z,39.00
2022-12-14T16:57:33.062Z,40.85
2022-12-14T16:59:46.144Z,45.00
2022-12-14T17:01:51.145Z,37.67
2022-12-14T17:04:06.806Z,39.75
2022-12-14T17:06:19.215Z,42.22
2022-12-14T17:08:21.917Z,41.80
2022-12-14T17:10:27.222Z,42.75
2022-12-14T17:12:30.806Z,38.38
2022-12-14T17:14:33.208Z,43.00
2022-12-14T17:16:35.665Z,41.45
2022-12-14T17:18:41.686Z,41.42
2022-12-14T17:20:50.159Z,42.85
2022-12-14T17:23:02.081Z,42.30
2022-12-14T17:25:05.799Z,41.72
2022-12-14T17:27:22.707Z,38.33
2022-12-14T17:29:29.043Z,39.72
2022-12-14T17:31:32.873Z,45.83
2022-12-14T17:33:36.746Z,38.97
2022-12-14T17:35:39.399Z,33.70
2022-12-14T17:37:42.960Z,37.75
2022-12-14T17:39:46.327Z,39.47
2022-12-14T17:41:50.279Z,39.45
2022-12-14T17:43:57.763Z,35.83
2022-12-14T17:46:01.796Z,36.10
2022-12-14T17:48:19.677Z,38.88
2022-12-14T17:50:26.543Z,37.85
2022-12-14T17:52:32.572Z,36.03
2022-12-14T17:54:37.017Z,39.30
2022-12-14T17:56:39.519Z,37.25
2022-12-14T17:58:45.607Z,39.35
2022-12-14T18:01:02.721Z,36.53
2022-12-14T18:03:11.134Z,37.33
2022-12-14T18:05:20.061Z,35.17
2022-12-14T18:07:22.856Z,37.92
2022-12-14T18:09:27.678Z,34.78
2022-12-14T18:11:30.563Z,38.13
2022-12-14T18:13:35.436Z,34.10
2022-12-14T18:15:50.113Z,37.08
2022-12-14T18:17:54.230Z,45.38
2022-12-14T18:20:05.232Z,35.90
2022-12-14T18:22:10.333Z,37.15
2022-12-14T18:24:25.908Z,40.88
2022-12-14T18:26:30.527Z,39.42
2022-12-14T18:28:37.119Z,38.70
2022-12-14T18:30:51.432Z,38.65
2022-12-14T18:32:56.577Z,40.20
2022-12-14T18:35:00.473Z,38.70
2022-12-14T18:37:07.248Z,35.88
2022-12-14T18:39:09.859Z,38.92
2022-12-14T18:41:19.247Z,39.28
2022-12-14T18:43:24.949Z,36.58
2022-12-14T18:45:32.944Z,39.47
2022-12-14T18:47:41.919Z,38.90
2022-12-14T18:49:46.356Z,37.83
2022-12-14T18:51:50.520Z,36.85
2022-12-14T18:54:00.754Z,36.92
2022-12-14T18:56:07.920Z,36.58
2022-12-14T18:58:47.889Z,33.53
2022-12-14T19:00:55.467Z,35.38
2022-12-14T19:03:02.908Z,35.53
2022-12-14T19:05:12.044Z,35.03
2022-12-14T19:07:16.739Z,36.85
2022-12-14T19:09:23.370Z,36.05
2022-12-14T19:11:43.147Z,35.10
2022-12-14T19:13:48.131Z,34.03
2022-12-14T19:15:55.561Z,36.50
2022-12-14T19:17:59.223Z,35.80
2022-12-14T19:20:03.655Z,38.33
2022-12-14T19:22:09.195Z,38.28
2022-12-14T19:24:15.757Z,38.47
2022-12-14T19:26:20.432Z,38.67
2022-12-14T19:28:32.842Z,39.13
2022-12-14T19:30:36.671Z,38.33
2022-12-14T19:32:42.683Z,37.95
2022-12-14T19:34:50.494Z,39.40
2022-12-14T19:36:53.575Z,39.92
2022-12-14T19:38:57.614Z,38.95
2022-12-14T19:41:04.746Z,37.33
2022-12-14T19:43:12.314Z,39.08
2022-12-14T19:45:17.161Z,38.70
2022-12-14T19:47:22.003Z,36.53
2022-12-14T19:49:26.255Z,38.80
2022-12-14T19:51:32.572Z,37.75
2022-12-14T19:53:40.175Z,36.55
2022-12-14T19:55:51.194Z,38.45
2022-12-14T19:57:55.747Z,37.45
2022-12-14T20:00:00.920Z,37.38
2022-12-14T20:02:06.310Z,40.58
2022-12-14T20:04:11.568Z,38.88
2022-12-14T20:06:15.278Z,39.63
2022-12-14T20:08:20.660Z,37.08
2022-12-14T20:10:31.310Z,35.83
2022-12-14T20:12:36.550Z,38.90
2022-12-14T20:14:44.739Z,42.75
2022-12-14T20:16:53.222Z,35.70
2022-12-14T20:19:08.059Z,37.85
2022-12-14T20:21:18.530Z,34.53
2022-12-14T20:23:29.625Z,36.40
2022-12-14T20:25:33.089Z,39.00
2022-12-14T20:27:40.774Z,39.25
2022-12-14T20:29:45.343Z,38.70
2022-12-14T20:31:49.662Z,32.85
2022-12-14T20:33:56.942Z,38.08
2022-12-14T20:36:01.348Z,37.13
2022-12-14T20:38:07.255Z,36.03
2022-12-14T20:40:12.223Z,35.67
2022-12-14T20:42:19.008Z,35.95
2022-12-14T20:44:26.632Z,38.35
2022-12-14T20:46:37.366Z,39.70
2022-12-14T20:48:48.867Z,37.65
2022-12-14T20:51:03.958Z,37.55
2022-12-14T20:53:07.978Z,36.70
2022-12-14T20:55:13.450Z,35.78
2022-12-14T20:57:16.629Z,35.97
2022-12-14T20:59:20.759Z,37.30
2022-12-14T21:01:26.129Z,33.83
2022-12-14T21:03:37.692Z,34.92
2022-12-14T21:06:00.792Z,31.85
2022-12-14T21:08:03.377Z,33.70
2022-12-14T21:10:08.372Z,32.42
2022-12-14T21:12:22.891Z,32.95
2022-12-14T21:14:27.965Z,34.90
2022-12-14T21:16:30.937Z,34.22
2022-12-14T21:18:32.992Z,33.85
2022-12-14T21:20:36.930Z,38.78
2022-12-14T21:26:06.093Z,34.78
2022-12-14T21:28:28.858Z,31.92
2022-12-14T21:30:36.969Z,32.00
2022-12-14T21:32:49.369Z,33.58
2022-12-14T21:35:38.792Z,31.45
2022-12-14T21:37:41.164Z,28.02
2022-12-14T21:40:04.059Z,32.38
2022-12-14T21:42:15.869Z,32.40
2022-12-14T21:47:10.814Z,29.58
2022-12-14T21:49:44.180Z,32.47
2022-12-14T21:52:18.856Z,32.90
2022-12-14T21:54:50.591Z,37.95
2022-12-14T21:57:38.485Z,36.30
2022-12-14T21:59:51.230Z,31.60
2022-12-14T22:02:17.764Z,30.75
2022-12-14T22:04:39.813Z,31.00
2022-12-14T22:06:46.065Z,35.45
2022-12-14T22:09:00.418Z,40.80
2022-12-14T22:11:06.518Z,38.45
2022-12-14T22:13:33.240Z,36.63
2022-12-14T22:15:43.693Z,33.95
2022-12-14T22:17:50.017Z,33.72
2022-12-14T22:19:54.500Z,30.65
2022-12-14T22:22:05.846Z,31.40
2022-12-14T22:24:20.858Z,27.65
2022-12-14T22:26:24.085Z,29.95
2022-12-14T22:28:31.162Z,31.05
2022-12-14T22:30:45.417Z,28.90
2022-12-14T22:33:00.428Z,26.67
2022-12-14T22:35:21.638Z,26.60
2022-12-14T22:37:32.839Z,29.83
2022-12-14T22:40:01.392Z,30.00
2022-12-14T22:42:10.751Z,28.92
2022-12-14T22:44:13.854Z,27.73
2022-12-14T22:46:38.950Z,30.55
2022-12-14T22:48:41.901Z,25.60
2022-12-14T22:50:50.951Z,26.00
2022-12-14T22:53:02.811Z,24.15
2022-12-14T22:57:26.840Z,25.77
2022-12-14T22:59:53.533Z,25.33
2022-12-14T23:01:59.319Z,24.83
2022-12-14T23:04:15.110Z,27.42
2022-12-14T23:06:21.694Z,25.88
2022-12-14T23:08:32.719Z,28.77
2022-12-14T23:11:01.999Z,31.53
2022-12-14T23:13:24.561Z,26.77
2022-12-14T23:15:46.298Z,30.27
2022-12-14T23:18:33.442Z,36.28
2022-12-14T23:20:59.361Z,27.30
2022-12-14T23:23:24.612Z,25.50
2022-12-14T23:26:01.960Z,30.85
2022-12-14T23:28:32.201Z,29.15
2022-12-14T23:31:01.879Z,27.75
2022-12-14T23:33:33.516Z,26.92
2022-12-14T23:35:53.773Z,30.23
2022-12-14T23:38:14.384Z,28.60
2022-12-14T23:40:35.931Z,28.90
2022-12-14T23:43:35.722Z,28.77
2022-12-14T23:46:14.670Z,32.75
2022-12-14T23:48:34.977Z,30.67
2022-12-14T23:51:13.548Z,31.63
2022-12-14T23:53:35.822Z,28.38
2022-12-14T23:56:03.381Z,25.27
2022-12-14T23:58:26.929Z,24.88
